Flugplatz Dachau-Gröbenried

Für EDMD sind keine METAR/TAF Berichte vorhanden.
Es werden die Flugwettermeldungen vom Flugplatz Oberpfaffenhofen in 19 km Entfernung angezeigt.

Bericht für EDMO

vom 17.07. um 23:20 UTC

Wind 4 kt aus 210°

Sichtweite 10 km oder mehr

aufgelockert bewölkt in 7900 ft

Temperatur 15.0°C

Taupunkt 12.0°C

Luftfeuchtigkeit 82%

Luftdruck 1014 hPa

EDMO 172320Z AUTO 21004KT 9999 // SCT079/// 15/12 Q1014

Prognose für EDMO

vom 17.07. um 00:00 UTC

Am 17.07. zwischen 00:00 UTC und 00:00 UTC

Wind 8 kt aus 320°

Sichtweite 10 km oder mehr

keine signifikanten Wettererscheinungen

keine Wolken


Am 17.07. zwischen 00:00 und 00:00 UTC übergehend zu

variable Windrichtung mit 3 kt

Sichtweite 10 km oder mehr

keine signifikanten Wettererscheinungen

keine Wolken

TAF EDMO 171700Z 1718/1803 32008KT CAVOK BECMG 1718/1721 VRB03KT
Impressum